Airfield :
LOGIN :

Register | Disclaimer

   EN    FR    IT 

 










Legend :    VFR   Marginal VFR   IFR   Intensive IFR   Very Intensive IFR
Visi :
Ceiling :
>= 8 km
>= 3000ft
5 to 8 km
1000 to 3000 ft
1500m to 5 km
500 to 1000 ft
800 to 1500m
200 to 500 ft
< 800m
< 200 ft
Symbols :   Thunderstorms  Fog  Heavy snow  Heavy precipitations  Wind > 20 kt
SIGMETs :     Misc.  Thunderstorms  Icing  Turbulence  Mountain Waves  Volcanic Ashes







- Airport Elevation : 32 ft
- IATA code : LKZ


EGUL - RAF Lakenheath

CURRENT METAR :
  • 241256Z AUTO 11009KT 9999 CLR 20/11 A3010 RMK AO2 SLP196 T01970107 $

EXPIRED METARs :
  • 241156Z AUTO 15009KT 9999 CLR 20/12 A3012 RMK AO2 SLP203 T01960119 10197 20125 57004 $
  • 241056Z AUTO 14013KT 9999 CLR 19/13 A3012 RMK AO2 SLP203 T01900127 $

TAF TAF EGUL
Valid from the 23 at 12:00 until the 24 at 18:00 UTC


231206Z 2312/2418 18012KT 9999 BKN030 QNH3015INS
BECMG 2317/2318 16009KT 9999 FEW030 BKN060 QNH3018INS
BECMG 2409/2410 15010G15KT 9999 BKN030 QNH3015INS TX21/2313Z TN06/2406Z LAST NO AMDS AFT 2312 NEXT 2420
No reported NOTAMs for that airfield.



MET'MAP, your aeronautical weather chart ! - Copyright ORBIFLY December 2007 - Disclaimer

ORBIFLY MET'MAP TEAM :

Programming & Development : Alexandra Zaïnal
Concept & Development : Baudouin d'Aumeries
Co-Development & Prog : Marc-Olivier Méhu
Technical & hardware support : Manuel Goepfert

Contact : metmap@orbifly.com




SOURCES & CREDITS :

   NOAA